sensor_id;sensor_type;location;lat;lon;timestamp;temperature;humidity
7598;DHT22;3840;59.32098800;18.06423600;2023-04-06T00:01:52;-0.10;99.90
7598;DHT22;3840;59.32098800;18.06423600;2023-04-06T00:04:19;-0.10;99.90
7598;DHT22;3840;59.32098800;18.06423600;2023-04-06T00:06:45;-0.10;99.90
7598;DHT22;3840;59.32098800;18.06423600;2023-04-06T00:09:10;-0.10;99.90
7598;DHT22;3840;59.32098800;18.06423600;2023-04-06T00:11:36;-0.20;99.90
7598;DHT22;3840;59.32098800;18.06423600;2023-04-06T00:14:02;-0.20;99.90
7598;DHT22;3840;59.32098800;18.06423600;2023-04-06T00:16:27;-0.20;99.90
7598;DHT22;3840;59.32098800;18.06423600;2023-04-06T00:18:53;-0.20;99.90
7598;DHT22;3840;59.32098800;18.06423600;2023-04-06T00:21:19;-0.30;99.90
7598;DHT22;3840;59.32098800;18.06423600;2023-04-06T00:23:45;-0.30;99.90
7598;DHT22;3840;59.32098800;18.06423600;2023-04-06T00:26:11;-0.30;99.90
7598;DHT22;3840;59.32098800;18.06423600;2023-04-06T00:28:37;-0.30;99.90
7598;DHT22;3840;59.32098800;18.06423600;2023-04-06T00:31:03;-0.30;99.90
7598;DHT22;3840;59.32098800;18.06423600;2023-04-06T00:33:29;-0.40;99.90
7598;DHT22;3840;59.32098800;18.06423600;2023-04-06T00:35:55;-0.40;99.90
7598;DHT22;3840;59.32098800;18.06423600;2023-04-06T00:38:21;-0.40;99.90
7598;DHT22;3840;59.32098800;18.06423600;2023-04-06T00:40:47;-0.40;99.90
7598;DHT22;3840;59.32098800;18.06423600;2023-04-06T00:43:14;-0.40;99.90
7598;DHT22;3840;59.32098800;18.06423600;2023-04-06T00:45:41;-0.40;99.90
7598;DHT22;3840;59.32098800;18.06423600;2023-04-06T00:48:08;-0.50;99.90
7598;DHT22;3840;59.32098800;18.06423600;2023-04-06T00:50:34;-0.50;99.90
7598;DHT22;3840;59.32098800;18.06423600;2023-04-06T00:53:00;-0.50;99.90
7598;DHT22;3840;59.32098800;18.06423600;2023-04-06T00:55:27;-0.50;99.90
7598;DHT22;3840;59.32098800;18.06423600;2023-04-06T00:57:53;-0.50;99.90
7598;DHT22;3840;59.32098800;18.06423600;2023-04-06T01:00:19;-0.50;99.90
7598;DHT22;3840;59.32098800;18.06423600;2023-04-06T01:02:45;-0.50;99.90
7598;DHT22;3840;59.32098800;18.06423600;2023-04-06T01:05:13;-0.40;99.90
7598;DHT22;3840;59.32098800;18.06423600;2023-04-06T01:07:39;-0.40;99.90
7598;DHT22;3840;59.32098800;18.06423600;2023-04-06T01:10:05;-0.40;99.90
7598;DHT22;3840;59.32098800;18.06423600;2023-04-06T01:12:31;-0.40;99.90
7598;DHT22;3840;59.32098800;18.06423600;2023-04-06T01:14:57;-0.40;99.90
7598;DHT22;3840;59.32098800;18.06423600;2023-04-06T01:17:22;-0.40;99.90
7598;DHT22;3840;59.32098800;18.06423600;2023-04-06T01:19:48;-0.40;99.90
7598;DHT22;3840;59.32098800;18.06423600;2023-04-06T01:22:18;-0.40;99.90
7598;DHT22;3840;59.32098800;18.06423600;2023-04-06T01:24:44;-0.40;99.90
7598;DHT22;3840;59.32098800;18.06423600;2023-04-06T01:27:10;-0.50;99.90
7598;DHT22;3840;59.32098800;18.06423600;2023-04-06T01:29:37;-0.50;99.90
7598;DHT22;3840;59.32098800;18.06423600;2023-04-06T01:32:04;-0.40;99.90
7598;DHT22;3840;59.32098800;18.06423600;2023-04-06T01:34:30;-0.50;99.90
7598;DHT22;3840;59.32098800;18.06423600;2023-04-06T01:36:55;-0.40;99.90
7598;DHT22;3840;59.32098800;18.06423600;2023-04-06T01:39:22;-0.40;99.90
7598;DHT22;3840;59.32098800;18.06423600;2023-04-06T01:41:47;-0.40;99.90
7598;DHT22;3840;59.32098800;18.06423600;2023-04-06T01:44:16;0.40;99.90
7598;DHT22;3840;59.32098800;18.06423600;2023-04-06T01:46:43;-0.20;99.90
7598;DHT22;3840;59.32098800;18.06423600;2023-04-06T01:49:09;-0.20;99.90
7598;DHT22;3840;59.32098800;18.06423600;2023-04-06T01:51:35;-0.20;99.90
7598;DHT22;3840;59.32098800;18.06423600;2023-04-06T01:54:00;-0.10;99.90
7598;DHT22;3840;59.32098800;18.06423600;2023-04-06T01:56:26;-0.10;99.90
7598;DHT22;3840;59.32098800;18.06423600;2023-04-06T01:58:52;0.00;99.90
7598;DHT22;3840;59.32098800;18.06423600;2023-04-06T02:01:18;0.00;99.90
7598;DHT22;3840;59.32098800;18.06423600;2023-04-06T02:03:43;0.10;99.90
7598;DHT22;3840;59.32098800;18.06423600;2023-04-06T02:06:09;0.10;99.90
7598;DHT22;3840;59.32098800;18.06423600;2023-04-06T02:08:36;0.10;99.90
7598;DHT22;3840;59.32098800;18.06423600;2023-04-06T02:11:02;0.10;99.90
7598;DHT22;3840;59.32098800;18.06423600;2023-04-06T02:13:28;0.10;99.90
7598;DHT22;3840;59.32098800;18.06423600;2023-04-06T02:15:54;0.10;99.90
7598;DHT22;3840;59.32098800;18.06423600;2023-04-06T02:18:20;0.20;99.90
7598;DHT22;3840;59.32098800;18.06423600;2023-04-06T02:20:46;0.20;99.90
7598;DHT22;3840;59.32098800;18.06423600;2023-04-06T02:23:12;0.20;99.90
7598;DHT22;3840;59.32098800;18.06423600;2023-04-06T02:25:37;0.20;99.90
7598;DHT22;3840;59.32098800;18.06423600;2023-04-06T02:28:03;0.30;99.90
7598;DHT22;3840;59.32098800;18.06423600;2023-04-06T02:30:32;0.30;99.90
7598;DHT22;3840;59.32098800;18.06423600;2023-04-06T02:33:01;0.30;99.90
7598;DHT22;3840;59.32098800;18.06423600;2023-04-06T02:35:31;0.30;99.90
7598;DHT22;3840;59.32098800;18.06423600;2023-04-06T02:37:57;0.30;99.90
7598;DHT22;3840;59.32098800;18.06423600;2023-04-06T02:40:23;0.40;99.90
7598;DHT22;3840;59.32098800;18.06423600;2023-04-06T02:42:48;0.40;99.90
7598;DHT22;3840;59.32098800;18.06423600;2023-04-06T02:45:14;0.40;99.90
7598;DHT22;3840;59.32098800;18.06423600;2023-04-06T02:47:41;0.40;99.90
7598;DHT22;3840;59.32098800;18.06423600;2023-04-06T02:50:07;0.40;99.90
7598;DHT22;3840;59.32098800;18.06423600;2023-04-06T02:52:33;0.40;99.90
7598;DHT22;3840;59.32098800;18.06423600;2023-04-06T02:54:58;0.40;99.90
7598;DHT22;3840;59.32098800;18.06423600;2023-04-06T02:57:24;0.40;99.90
7598;DHT22;3840;59.32098800;18.06423600;2023-04-06T02:59:51;0.50;99.90
7598;DHT22;3840;59.32098800;18.06423600;2023-04-06T03:02:16;0.30;99.90
7598;DHT22;3840;59.32098800;18.06423600;2023-04-06T03:04:43;0.60;99.90
7598;DHT22;3840;59.32098800;18.06423600;2023-04-06T03:07:09;0.50;99.90
7598;DHT22;3840;59.32098800;18.06423600;2023-04-06T03:09:37;0.50;99.90
7598;DHT22;3840;59.32098800;18.06423600;2023-04-06T03:12:03;0.50;99.90
7598;DHT22;3840;59.32098800;18.06423600;2023-04-06T03:14:29;0.50;99.90
7598;DHT22;3840;59.32098800;18.06423600;2023-04-06T03:16:57;0.50;99.90
7598;DHT22;3840;59.32098800;18.06423600;2023-04-06T03:19:22;0.60;99.90
7598;DHT22;3840;59.32098800;18.06423600;2023-04-06T03:21:48;0.50;99.90
7598;DHT22;3840;59.32098800;18.06423600;2023-04-06T03:24:14;0.60;99.90
7598;DHT22;3840;59.32098800;18.06423600;2023-04-06T03:26:40;0.60;99.90
7598;DHT22;3840;59.32098800;18.06423600;2023-04-06T03:29:05;0.60;99.90
7598;DHT22;3840;59.32098800;18.06423600;2023-04-06T03:31:31;0.60;99.90
7598;DHT22;3840;59.32098800;18.06423600;2023-04-06T03:33:58;0.60;99.90
7598;DHT22;3840;59.32098800;18.06423600;2023-04-06T03:36:24;0.60;99.90
7598;DHT22;3840;59.32098800;18.06423600;2023-04-06T03:38:51;0.60;99.90
7598;DHT22;3840;59.32098800;18.06423600;2023-04-06T03:41:19;0.60;99.90
7598;DHT22;3840;59.32098800;18.06423600;2023-04-06T03:43:45;0.60;99.90
7598;DHT22;3840;59.32098800;18.06423600;2023-04-06T03:46:11;0.60;99.90
7598;DHT22;3840;59.32098800;18.06423600;2023-04-06T03:48:36;0.70;99.90
7598;DHT22;3840;59.32098800;18.06423600;2023-04-06T03:51:02;0.70;99.90
7598;DHT22;3840;59.32098800;18.06423600;2023-04-06T03:53:28;0.70;99.90
7598;DHT22;3840;59.32098800;18.06423600;2023-04-06T03:55:54;0.80;99.90
7598;DHT22;3840;59.32098800;18.06423600;2023-04-06T03:58:20;0.80;99.90
7598;DHT22;3840;59.32098800;18.06423600;2023-04-06T04:00:46;0.80;99.90
7598;DHT22;3840;59.32098800;18.06423600;2023-04-06T04:03:12;0.80;99.90
7598;DHT22;3840;59.32098800;18.06423600;2023-04-06T04:05:38;0.90;99.90
7598;DHT22;3840;59.32098800;18.06423600;2023-04-06T04:08:04;0.80;99.90
7598;DHT22;3840;59.32098800;18.06423600;2023-04-06T04:10:29;0.90;99.90
7598;DHT22;3840;59.32098800;18.06423600;2023-04-06T04:12:55;0.90;99.90
7598;DHT22;3840;59.32098800;18.06423600;2023-04-06T04:15:21;0.90;99.90
7598;DHT22;3840;59.32098800;18.06423600;2023-04-06T04:17:46;0.90;99.90
7598;DHT22;3840;59.32098800;18.06423600;2023-04-06T04:20:15;0.90;99.90
7598;DHT22;3840;59.32098800;18.06423600;2023-04-06T04:22:41;1.00;99.90
7598;DHT22;3840;59.32098800;18.06423600;2023-04-06T04:25:08;1.00;99.90
7598;DHT22;3840;59.32098800;18.06423600;2023-04-06T04:27:34;1.00;99.90
7598;DHT22;3840;59.32098800;18.06423600;2023-04-06T04:30:00;1.00;99.90
7598;DHT22;3840;59.32098800;18.06423600;2023-04-06T04:32:26;1.00;99.90
7598;DHT22;3840;59.32098800;18.06423600;2023-04-06T04:34:53;1.10;99.90
7598;DHT22;3840;59.32098800;18.06423600;2023-04-06T04:37:19;1.10;99.90
7598;DHT22;3840;59.32098800;18.06423600;2023-04-06T04:39:45;1.20;99.90
7598;DHT22;3840;59.32098800;18.06423600;2023-04-06T04:42:11;1.20;99.90
7598;DHT22;3840;59.32098800;18.06423600;2023-04-06T04:44:37;1.20;99.90
7598;DHT22;3840;59.32098800;18.06423600;2023-04-06T04:47:03;1.30;99.90
7598;DHT22;3840;59.32098800;18.06423600;2023-04-06T04:49:29;1.30;99.90
7598;DHT22;3840;59.32098800;18.06423600;2023-04-06T04:51:55;1.30;99.90
7598;DHT22;3840;59.32098800;18.06423600;2023-04-06T04:54:21;1.30;99.90
7598;DHT22;3840;59.32098800;18.06423600;2023-04-06T04:56:47;1.30;99.90
7598;DHT22;3840;59.32098800;18.06423600;2023-04-06T04:59:13;1.30;99.90
7598;DHT22;3840;59.32098800;18.06423600;2023-04-06T05:01:39;1.40;99.90
7598;DHT22;3840;59.32098800;18.06423600;2023-04-06T05:04:05;1.40;99.90
7598;DHT22;3840;59.32098800;18.06423600;2023-04-06T05:06:31;1.50;99.90
7598;DHT22;3840;59.32098800;18.06423600;2023-04-06T05:08:57;1.50;99.90
7598;DHT22;3840;59.32098800;18.06423600;2023-04-06T05:11:23;1.50;99.90
7598;DHT22;3840;59.32098800;18.06423600;2023-04-06T05:13:49;1.60;99.90
7598;DHT22;3840;59.32098800;18.06423600;2023-04-06T05:16:16;1.60;99.90
7598;DHT22;3840;59.32098800;18.06423600;2023-04-06T05:18:41;1.60;99.90
7598;DHT22;3840;59.32098800;18.06423600;2023-04-06T05:21:07;1.70;99.90
7598;DHT22;3840;59.32098800;18.06423600;2023-04-06T05:23:34;1.80;99.90
7598;DHT22;3840;59.32098800;18.06423600;2023-04-06T05:25:59;1.80;99.90
7598;DHT22;3840;59.32098800;18.06423600;2023-04-06T05:28:25;1.80;99.90
7598;DHT22;3840;59.32098800;18.06423600;2023-04-06T05:30:52;1.80;99.90
7598;DHT22;3840;59.32098800;18.06423600;2023-04-06T05:33:18;1.80;99.90
7598;DHT22;3840;59.32098800;18.06423600;2023-04-06T05:35:44;1.90;99.90
7598;DHT22;3840;59.32098800;18.06423600;2023-04-06T05:38:10;1.90;99.90
7598;DHT22;3840;59.32098800;18.06423600;2023-04-06T05:40:36;2.00;99.90
7598;DHT22;3840;59.32098800;18.06423600;2023-04-06T05:43:03;2.00;99.90
7598;DHT22;3840;59.32098800;18.06423600;2023-04-06T05:45:30;2.00;99.90
7598;DHT22;3840;59.32098800;18.06423600;2023-04-06T05:47:56;2.00;99.90
7598;DHT22;3840;59.32098800;18.06423600;2023-04-06T05:50:22;2.10;99.90
7598;DHT22;3840;59.32098800;18.06423600;2023-04-06T05:52:49;1.10;99.90
7598;DHT22;3840;59.32098800;18.06423600;2023-04-06T05:55:15;2.20;99.90
7598;DHT22;3840;59.32098800;18.06423600;2023-04-06T05:57:41;2.20;99.90
7598;DHT22;3840;59.32098800;18.06423600;2023-04-06T06:00:07;2.20;99.90
7598;DHT22;3840;59.32098800;18.06423600;2023-04-06T06:02:35;2.20;99.90
7598;DHT22;3840;59.32098800;18.06423600;2023-04-06T06:05:01;2.30;99.90
7598;DHT22;3840;59.32098800;18.06423600;2023-04-06T06:07:27;2.30;99.90
7598;DHT22;3840;59.32098800;18.06423600;2023-04-06T06:09:55;2.30;99.90
7598;DHT22;3840;59.32098800;18.06423600;2023-04-06T06:12:21;2.30;99.90
7598;DHT22;3840;59.32098800;18.06423600;2023-04-06T06:14:47;2.30;99.90
7598;DHT22;3840;59.32098800;18.06423600;2023-04-06T06:17:13;2.30;99.90
7598;DHT22;3840;59.32098800;18.06423600;2023-04-06T06:19:40;2.40;99.90
7598;DHT22;3840;59.32098800;18.06423600;2023-04-06T06:22:06;2.50;99.90
7598;DHT22;3840;59.32098800;18.06423600;2023-04-06T06:24:32;2.60;99.90
7598;DHT22;3840;59.32098800;18.06423600;2023-04-06T06:26:58;2.60;99.90
7598;DHT22;3840;59.32098800;18.06423600;2023-04-06T06:29:24;2.70;99.90
7598;DHT22;3840;59.32098800;18.06423600;2023-04-06T06:31:50;2.90;99.90
7598;DHT22;3840;59.32098800;18.06423600;2023-04-06T06:34:15;2.90;99.90
7598;DHT22;3840;59.32098800;18.06423600;2023-04-06T06:36:41;2.90;99.90
7598;DHT22;3840;59.32098800;18.06423600;2023-04-06T06:39:07;2.90;99.90
7598;DHT22;3840;59.32098800;18.06423600;2023-04-06T06:41:33;2.90;99.90
7598;DHT22;3840;59.32098800;18.06423600;2023-04-06T06:43:58;3.00;99.90
7598;DHT22;3840;59.32098800;18.06423600;2023-04-06T06:46:25;3.00;99.90
7598;DHT22;3840;59.32098800;18.06423600;2023-04-06T06:48:52;3.00;99.90
7598;DHT22;3840;59.32098800;18.06423600;2023-04-06T06:51:18;3.20;99.90
7598;DHT22;3840;59.32098800;18.06423600;2023-04-06T06:53:44;3.20;99.90
7598;DHT22;3840;59.32098800;18.06423600;2023-04-06T06:56:10;3.10;99.90
7598;DHT22;3840;59.32098800;18.06423600;2023-04-06T06:58:36;3.30;99.90
7598;DHT22;3840;59.32098800;18.06423600;2023-04-06T07:01:02;3.30;99.90
7598;DHT22;3840;59.32098800;18.06423600;2023-04-06T07:03:30;3.40;99.90
7598;DHT22;3840;59.32098800;18.06423600;2023-04-06T07:05:56;3.50;99.90
7598;DHT22;3840;59.32098800;18.06423600;2023-04-06T07:08:23;3.60;99.90
7598;DHT22;3840;59.32098800;18.06423600;2023-04-06T07:10:51;3.70;99.90
7598;DHT22;3840;59.32098800;18.06423600;2023-04-06T07:13:18;3.70;99.90
7598;DHT22;3840;59.32098800;18.06423600;2023-04-06T07:15:51;3.70;99.90
7598;DHT22;3840;59.32098800;18.06423600;2023-04-06T07:18:17;3.80;99.90
7598;DHT22;3840;59.32098800;18.06423600;2023-04-06T07:20:43;3.90;99.90
7598;DHT22;3840;59.32098800;18.06423600;2023-04-06T07:23:09;4.00;99.90
7598;DHT22;3840;59.32098800;18.06423600;2023-04-06T07:25:35;4.00;99.90
7598;DHT22;3840;59.32098800;18.06423600;2023-04-06T07:28:02;4.10;99.90
7598;DHT22;3840;59.32098800;18.06423600;2023-04-06T07:30:28;4.10;99.90
7598;DHT22;3840;59.32098800;18.06423600;2023-04-06T07:32:54;4.20;99.90
7598;DHT22;3840;59.32098800;18.06423600;2023-04-06T07:35:26;4.20;99.90
7598;DHT22;3840;59.32098800;18.06423600;2023-04-06T07:37:53;4.40;99.90
7598;DHT22;3840;59.32098800;18.06423600;2023-04-06T07:40:19;4.40;99.90
7598;DHT22;3840;59.32098800;18.06423600;2023-04-06T07:42:45;4.50;99.90
7598;DHT22;3840;59.32098800;18.06423600;2023-04-06T07:45:11;4.40;99.90
7598;DHT22;3840;59.32098800;18.06423600;2023-04-06T07:47:38;4.40;99.90
7598;DHT22;3840;59.32098800;18.06423600;2023-04-06T07:50:05;4.40;99.90
7598;DHT22;3840;59.32098800;18.06423600;2023-04-06T07:52:31;4.50;99.90
7598;DHT22;3840;59.32098800;18.06423600;2023-04-06T07:54:59;4.50;99.90
7598;DHT22;3840;59.32098800;18.06423600;2023-04-06T07:57:25;4.50;99.90
7598;DHT22;3840;59.32098800;18.06423600;2023-04-06T07:59:51;4.60;99.90
7598;DHT22;3840;59.32098800;18.06423600;2023-04-06T08:02:17;4.60;99.90
7598;DHT22;3840;59.32098800;18.06423600;2023-04-06T08:04:44;4.60;99.90
7598;DHT22;3840;59.32098800;18.06423600;2023-04-06T08:07:10;4.70;99.90
7598;DHT22;3840;59.32098800;18.06423600;2023-04-06T08:09:35;4.50;99.90
7598;DHT22;3840;59.32098800;18.06423600;2023-04-06T08:12:01;4.50;99.90
7598;DHT22;3840;59.32098800;18.06423600;2023-04-06T08:14:27;4.90;99.90
7598;DHT22;3840;59.32098800;18.06423600;2023-04-06T08:16:53;4.60;99.90
7598;DHT22;3840;59.32098800;18.06423600;2023-04-06T08:19:18;4.60;99.90
7598;DHT22;3840;59.32098800;18.06423600;2023-04-06T08:21:47;4.50;99.90
7598;DHT22;3840;59.32098800;18.06423600;2023-04-06T08:24:14;4.50;99.90
7598;DHT22;3840;59.32098800;18.06423600;2023-04-06T08:26:40;4.50;99.90
7598;DHT22;3840;59.32098800;18.06423600;2023-04-06T08:29:06;4.50;99.90
7598;DHT22;3840;59.32098800;18.06423600;2023-04-06T08:31:35;4.50;99.90
7598;DHT22;3840;59.32098800;18.06423600;2023-04-06T08:34:03;4.60;99.90
7598;DHT22;3840;59.32098800;18.06423600;2023-04-06T08:36:29;4.70;99.90
7598;DHT22;3840;59.32098800;18.06423600;2023-04-06T08:38:55;4.70;99.90
7598;DHT22;3840;59.32098800;18.06423600;2023-04-06T08:41:21;4.70;99.90
7598;DHT22;3840;59.32098800;18.06423600;2023-04-06T08:46:14;5.00;99.90
7598;DHT22;3840;59.32098800;18.06423600;2023-04-06T08:48:41;5.00;99.90
7598;DHT22;3840;59.32098800;18.06423600;2023-04-06T08:51:08;5.10;99.90
7598;DHT22;3840;59.32098800;18.06423600;2023-04-06T08:53:36;5.00;99.90
7598;DHT22;3840;59.32098800;18.06423600;2023-04-06T08:56:03;4.90;99.90
7598;DHT22;3840;59.32098800;18.06423600;2023-04-06T08:58:34;5.00;99.90
7598;DHT22;3840;59.32098800;18.06423600;2023-04-06T09:01:03;5.10;99.90
7598;DHT22;3840;59.32098800;18.06423600;2023-04-06T09:03:33;5.20;99.90
7598;DHT22;3840;59.32098800;18.06423600;2023-04-06T09:06:00;5.20;99.90
7598;DHT22;3840;59.32098800;18.06423600;2023-04-06T09:08:26;5.10;99.90
7598;DHT22;3840;59.32098800;18.06423600;2023-04-06T09:10:52;5.10;99.90
7598;DHT22;3840;59.32098800;18.06423600;2023-04-06T09:13:18;5.20;99.90
7598;DHT22;3840;59.32098800;18.06423600;2023-04-06T09:15:44;5.30;99.90
7598;DHT22;3840;59.32098800;18.06423600;2023-04-06T09:18:11;5.30;99.90
7598;DHT22;3840;59.32098800;18.06423600;2023-04-06T09:20:37;5.30;99.90
7598;DHT22;3840;59.32098800;18.06423600;2023-04-06T09:23:03;5.30;99.90
7598;DHT22;3840;59.32098800;18.06423600;2023-04-06T09:25:29;5.40;99.90
7598;DHT22;3840;59.32098800;18.06423600;2023-04-06T09:28:04;5.40;99.90
7598;DHT22;3840;59.32098800;18.06423600;2023-04-06T09:30:32;5.50;99.90
7598;DHT22;3840;59.32098800;18.06423600;2023-04-06T09:32:58;5.40;99.90
7598;DHT22;3840;59.32098800;18.06423600;2023-04-06T09:35:25;5.50;99.90
7598;DHT22;3840;59.32098800;18.06423600;2023-04-06T09:37:55;5.60;99.90
7598;DHT22;3840;59.32098800;18.06423600;2023-04-06T09:40:22;5.50;99.90
7598;DHT22;3840;59.32098800;18.06423600;2023-04-06T09:42:49;5.50;99.90
7598;DHT22;3840;59.32098800;18.06423600;2023-04-06T09:45:19;5.30;99.90
7598;DHT22;3840;59.32098800;18.06423600;2023-04-06T09:47:46;5.40;99.90
7598;DHT22;3840;59.32098800;18.06423600;2023-04-06T09:50:13;5.40;99.90
7598;DHT22;3840;59.32098800;18.06423600;2023-04-06T09:52:47;5.30;99.90
7598;DHT22;3840;59.32098800;18.06423600;2023-04-06T09:55:45;5.50;99.90
7598;DHT22;3840;59.32098800;18.06423600;2023-04-06T09:58:16;5.70;99.90
7598;DHT22;3840;59.32098800;18.06423600;2023-04-06T10:00:57;6.80;99.90
7598;DHT22;3840;59.32098800;18.06423600;2023-04-06T10:06:11;6.00;99.90
7598;DHT22;3840;59.32098800;18.06423600;2023-04-06T10:08:39;6.00;99.90
7598;DHT22;3840;59.32098800;18.06423600;2023-04-06T10:11:09;6.10;99.90
7598;DHT22;3840;59.32098800;18.06423600;2023-04-06T10:13:36;6.20;99.90
7598;DHT22;3840;59.32098800;18.06423600;2023-04-06T10:16:02;6.20;99.90
7598;DHT22;3840;59.32098800;18.06423600;2023-04-06T10:18:28;6.20;99.90
7598;DHT22;3840;59.32098800;18.06423600;2023-04-06T10:21:09;6.40;99.90
7598;DHT22;3840;59.32098800;18.06423600;2023-04-06T10:23:51;6.40;99.90
7598;DHT22;3840;59.32098800;18.06423600;2023-04-06T10:26:20;6.30;99.90
7598;DHT22;3840;59.32098800;18.06423600;2023-04-06T10:28:47;6.30;99.90
7598;DHT22;3840;59.32098800;18.06423600;2023-04-06T10:31:13;6.30;99.90
7598;DHT22;3840;59.32098800;18.06423600;2023-04-06T10:33:40;6.50;99.90
7598;DHT22;3840;59.32098800;18.06423600;2023-04-06T10:36:23;6.50;99.90
7598;DHT22;3840;59.32098800;18.06423600;2023-04-06T10:38:55;6.30;99.90
7598;DHT22;3840;59.32098800;18.06423600;2023-04-06T10:41:22;6.30;99.90
7598;DHT22;3840;59.32098800;18.06423600;2023-04-06T10:43:56;6.40;99.90
7598;DHT22;3840;59.32098800;18.06423600;2023-04-06T10:46:27;6.60;99.90
7598;DHT22;3840;59.32098800;18.06423600;2023-04-06T10:48:52;6.60;99.90
7598;DHT22;3840;59.32098800;18.06423600;2023-04-06T10:51:19;6.40;99.90
7598;DHT22;3840;59.32098800;18.06423600;2023-04-06T10:53:49;6.50;99.90
7598;DHT22;3840;59.32098800;18.06423600;2023-04-06T10:56:17;6.50;99.90
7598;DHT22;3840;59.32098800;18.06423600;2023-04-06T10:58:48;6.30;99.90
7598;DHT22;3840;59.32098800;18.06423600;2023-04-06T11:01:18;6.10;99.90
7598;DHT22;3840;59.32098800;18.06423600;2023-04-06T11:03:47;6.10;99.90
7598;DHT22;3840;59.32098800;18.06423600;2023-04-06T11:06:24;6.10;99.90
7598;DHT22;3840;59.32098800;18.06423600;2023-04-06T11:08:51;6.30;99.90
7598;DHT22;3840;59.32098800;18.06423600;2023-04-06T11:11:22;6.10;99.90
7598;DHT22;3840;59.32098800;18.06423600;2023-04-06T11:13:56;5.90;99.90
7598;DHT22;3840;59.32098800;18.06423600;2023-04-06T11:16:32;5.90;99.90
7598;DHT22;3840;59.32098800;18.06423600;2023-04-06T11:19:01;6.10;99.90
7598;DHT22;3840;59.32098800;18.06423600;2023-04-06T11:21:37;5.80;99.90
7598;DHT22;3840;59.32098800;18.06423600;2023-04-06T11:26:46;5.80;99.90
7598;DHT22;3840;59.32098800;18.06423600;2023-04-06T11:29:15;5.90;99.90
7598;DHT22;3840;59.32098800;18.06423600;2023-04-06T11:31:53;5.90;99.90
7598;DHT22;3840;59.32098800;18.06423600;2023-04-06T11:34:20;5.80;99.90
7598;DHT22;3840;59.32098800;18.06423600;2023-04-06T11:36:54;6.20;99.90
7598;DHT22;3840;59.32098800;18.06423600;2023-04-06T11:39:21;6.30;99.90
7598;DHT22;3840;59.32098800;18.06423600;2023-04-06T11:41:50;6.40;99.90
7598;DHT22;3840;59.32098800;18.06423600;2023-04-06T11:44:37;6.60;99.90
7598;DHT22;3840;59.32098800;18.06423600;2023-04-06T11:47:08;6.60;99.90
7598;DHT22;3840;59.32098800;18.06423600;2023-04-06T11:49:37;6.70;99.90
7598;DHT22;3840;59.32098800;18.06423600;2023-04-06T11:52:20;6.80;99.90
7598;DHT22;3840;59.32098800;18.06423600;2023-04-06T11:54:47;6.80;99.90
7598;DHT22;3840;59.32098800;18.06423600;2023-04-06T11:57:14;6.90;99.90
7598;DHT22;3840;59.32098800;18.06423600;2023-04-06T11:59:40;6.80;99.90
7598;DHT22;3840;59.32098800;18.06423600;2023-04-06T12:02:06;6.90;99.90
7598;DHT22;3840;59.32098800;18.06423600;2023-04-06T12:04:33;6.80;99.90
7598;DHT22;3840;59.32098800;18.06423600;2023-04-06T12:07:01;7.40;99.90
7598;DHT22;3840;59.32098800;18.06423600;2023-04-06T12:09:27;6.60;99.90
7598;DHT22;3840;59.32098800;18.06423600;2023-04-06T12:11:53;6.40;99.90
7598;DHT22;3840;59.32098800;18.06423600;2023-04-06T12:14:19;6.20;99.90
7598;DHT22;3840;59.32098800;18.06423600;2023-04-06T12:16:46;6.10;99.90
7598;DHT22;3840;59.32098800;18.06423600;2023-04-06T12:19:12;6.10;99.90
7598;DHT22;3840;59.32098800;18.06423600;2023-04-06T12:21:38;6.10;99.90
7598;DHT22;3840;59.32098800;18.06423600;2023-04-06T12:24:07;6.00;99.90
7598;DHT22;3840;59.32098800;18.06423600;2023-04-06T12:26:33;6.00;99.90
7598;DHT22;3840;59.32098800;18.06423600;2023-04-06T12:28:59;6.10;99.90
7598;DHT22;3840;59.32098800;18.06423600;2023-04-06T12:31:43;6.20;99.90
7598;DHT22;3840;59.32098800;18.06423600;2023-04-06T12:34:11;6.20;99.90
7598;DHT22;3840;59.32098800;18.06423600;2023-04-06T12:36:38;6.20;99.90
7598;DHT22;3840;59.32098800;18.06423600;2023-04-06T12:39:05;6.30;99.90
7598;DHT22;3840;59.32098800;18.06423600;2023-04-06T12:41:31;6.20;99.90
7598;DHT22;3840;59.32098800;18.06423600;2023-04-06T12:43:58;6.10;99.90
7598;DHT22;3840;59.32098800;18.06423600;2023-04-06T12:46:27;6.10;99.90
7598;DHT22;3840;59.32098800;18.06423600;2023-04-06T12:48:57;6.00;99.90
7598;DHT22;3840;59.32098800;18.06423600;2023-04-06T12:51:26;6.10;99.90
7598;DHT22;3840;59.32098800;18.06423600;2023-04-06T12:53:53;6.20;99.90
7598;DHT22;3840;59.32098800;18.06423600;2023-04-06T12:56:19;6.10;99.90
7598;DHT22;3840;59.32098800;18.06423600;2023-04-06T12:58:47;6.20;99.90
7598;DHT22;3840;59.32098800;18.06423600;2023-04-06T13:01:13;6.20;99.90
7598;DHT22;3840;59.32098800;18.06423600;2023-04-06T13:03:40;6.10;99.90
7598;DHT22;3840;59.32098800;18.06423600;2023-04-06T13:06:06;6.00;99.90
7598;DHT22;3840;59.32098800;18.06423600;2023-04-06T13:08:34;5.90;99.90
7598;DHT22;3840;59.32098800;18.06423600;2023-04-06T13:11:00;5.90;99.90
7598;DHT22;3840;59.32098800;18.06423600;2023-04-06T13:13:27;6.00;99.90
7598;DHT22;3840;59.32098800;18.06423600;2023-04-06T13:15:54;7.10;99.90
7598;DHT22;3840;59.32098800;18.06423600;2023-04-06T13:18:23;6.00;99.90
7598;DHT22;3840;59.32098800;18.06423600;2023-04-06T13:20:49;6.00;99.90
7598;DHT22;3840;59.32098800;18.06423600;2023-04-06T13:23:15;5.90;99.90
7598;DHT22;3840;59.32098800;18.06423600;2023-04-06T13:25:41;5.90;99.90
7598;DHT22;3840;59.32098800;18.06423600;2023-04-06T13:28:08;5.90;99.90
7598;DHT22;3840;59.32098800;18.06423600;2023-04-06T13:30:35;6.00;99.90
7598;DHT22;3840;59.32098800;18.06423600;2023-04-06T13:33:01;6.00;99.90
7598;DHT22;3840;59.32098800;18.06423600;2023-04-06T13:35:27;6.00;99.90
7598;DHT22;3840;59.32098800;18.06423600;2023-04-06T13:37:53;5.90;99.90
7598;DHT22;3840;59.32098800;18.06423600;2023-04-06T13:40:19;6.00;99.90
7598;DHT22;3840;59.32098800;18.06423600;2023-04-06T13:42:47;6.00;99.90
7598;DHT22;3840;59.32098800;18.06423600;2023-04-06T13:45:12;6.00;99.90
7598;DHT22;3840;59.32098800;18.06423600;2023-04-06T13:47:40;6.00;99.90
7598;DHT22;3840;59.32098800;18.06423600;2023-04-06T13:50:07;5.90;99.90
7598;DHT22;3840;59.32098800;18.06423600;2023-04-06T13:52:35;5.90;99.90